Gray, Tennessee
Current Conditions -  °F | °C
As of 12:53 PM on Sunday 21 Dec 2014 (Local Time) from KTRI Reporting Station
Few Clouds Few Clouds  
Wind Chill: 49°   Ceiling: Unl
Heat Index: 49°   Visibility: 10mi
Dew Point: 34°   Wind: 0mph
Humidity: 56%   Direction: NA
Pressure: 30.17"   Gusts: NA
Location:  36.4005°N, 82.4574°W
Report Text: KTRI 211753Z 00000KT 10SM FEW035 09/01 A3017 RMK AO2 SLP208 T00940011 10100 20028 58027
Loading
Personal Weather Stations






























Interactive Weather Map New forecast layout! Learn more

10-Day Weather Forecast

Advertisements
Track Severe Weather on mobile